Terminal Aerodrome Forecast
Issued by NWS El Paso, TX

Home | Current Version | Previous Version | Text Only | Print | Product List | Glossary On
Versions: 1 2 3 4 5 6 7 8 9 10 11 12 13 14
109
FTUS44 KEPZ 051720
TAFELP
TAF
KELP 051720Z 0518/0618 26007KT P6SM FEW220
     FM052000 26013G23KT P6SM FEW220
     FM060700 27010KT P6SM SCT220=

USA.gov is the U.S. government's official web portal to all federal, state and local government web resources and services.